createdAt,value
2019-02-21T00:01:40.930Z,29.30
2019-02-21T00:04:18.284Z,29.40
2019-02-21T00:06:50.506Z,29.40
2019-02-21T00:09:22.320Z,29.40
2019-02-21T00:11:54.339Z,29.20
2019-02-21T00:14:26.390Z,29.40
2019-02-21T00:16:58.910Z,29.40
2019-02-21T00:19:31.026Z,29.40
2019-02-21T00:22:02.856Z,29.40
2019-02-21T00:24:34.572Z,29.30
2019-02-21T00:27:07.884Z,29.30
2019-02-21T00:29:39.597Z,29.20
2019-02-21T00:32:11.389Z,29.20
2019-02-21T00:34:43.372Z,29.10
2019-02-21T00:37:15.478Z,29.10
2019-02-21T00:39:47.546Z,28.90
2019-02-21T00:42:22.798Z,29.00
2019-02-21T00:44:54.899Z,28.90
2019-02-21T00:47:28.076Z,28.80
2019-02-21T00:50:00.330Z,28.70
2019-02-21T00:52:32.500Z,28.60
2019-02-21T00:55:04.588Z,28.80
2019-02-21T00:57:36.728Z,28.80
2019-02-21T01:00:11.444Z,28.80
2019-02-21T01:02:44.931Z,28.70
2019-02-21T01:05:17.080Z,28.50
2019-02-21T01:07:49.259Z,28.40
2019-02-21T01:10:21.199Z,28.40
2019-02-21T01:12:53.265Z,28.50
2019-02-21T01:15:25.022Z,28.50
2019-02-21T01:17:56.785Z,28.70
2019-02-21T01:20:30.151Z,28.70
2019-02-21T01:23:01.925Z,28.80
2019-02-21T01:25:33.710Z,28.70
2019-02-21T01:28:06.018Z,28.90
2019-02-21T01:30:37.877Z,28.80
2019-02-21T01:33:09.640Z,28.90
2019-02-21T01:35:42.556Z,28.90
2019-02-21T01:38:14.326Z,28.90
2019-02-21T01:40:46.079Z,29.00
2019-02-21T01:43:18.202Z,29.00
2019-02-21T01:45:50.014Z,29.00
2019-02-21T01:48:21.803Z,29.00
2019-02-21T01:50:53.768Z,29.10
2019-02-21T01:53:25.544Z,29.10
2019-02-21T01:55:57.363Z,29.10
2019-02-21T01:58:29.434Z,29.00
2019-02-21T02:01:08.458Z,29.10
2019-02-21T02:03:35.107Z,29.20
2019-02-21T02:06:07.175Z,29.20
2019-02-21T02:08:39.228Z,29.00
2019-02-21T02:11:11.147Z,29.00
2019-02-21T02:13:43.230Z,29.00
2019-02-21T02:16:14.946Z,29.10
2019-02-21T02:18:46.736Z,29.00
2019-02-21T02:21:19.765Z,29.10
2019-02-21T02:23:51.549Z,29.20
2019-02-21T02:26:23.281Z,29.30
2019-02-21T02:28:55.555Z,29.30
2019-02-21T02:31:27.381Z,29.30
2019-02-21T02:33:59.184Z,29.30
2019-02-21T02:36:30.913Z,29.30
2019-02-21T02:39:03.021Z,29.20
2019-02-21T02:41:36.418Z,28.80
2019-02-21T02:44:08.525Z,28.80
2019-02-21T02:46:40.262Z,28.60
2019-02-21T02:49:12.048Z,28.80
2019-02-21T02:51:43.796Z,29.00
2019-02-21T02:54:15.575Z,29.00
2019-02-21T02:56:47.436Z,29.10
2019-02-21T02:59:19.442Z,29.10
2019-02-21T03:01:51.192Z,29.00
2019-02-21T03:04:23.021Z,29.10
2019-02-21T03:06:55.123Z,29.20
2019-02-21T03:09:26.884Z,29.20
2019-02-21T03:11:58.768Z,29.20
2019-02-21T03:14:30.763Z,29.30
2019-02-21T03:17:02.518Z,29.30
2019-02-21T03:19:34.268Z,29.30
2019-02-21T03:22:06.057Z,29.40
2019-02-21T03:24:37.814Z,29.40
2019-02-21T03:27:09.611Z,29.20
2019-02-21T03:29:41.741Z,29.30
2019-02-21T03:32:13.614Z,29.30
2019-02-21T03:34:45.433Z,29.40
2019-02-21T03:37:17.240Z,29.40
2019-02-21T03:39:49.070Z,29.50
2019-02-21T03:42:21.019Z,29.20
2019-02-21T03:44:52.982Z,29.30
2019-02-21T03:47:24.842Z,29.30
2019-02-21T03:49:56.593Z,29.40
2019-02-21T03:52:28.337Z,29.40
2019-02-21T03:55:00.208Z,29.50
2019-02-21T03:57:32.212Z,29.60
2019-02-21T04:00:04.253Z,29.60
2019-02-21T04:02:36.170Z,29.40
2019-02-21T04:05:08.136Z,29.50
2019-02-21T04:07:39.999Z,29.40
2019-02-21T04:10:12.322Z,29.30
2019-02-21T04:12:44.086Z,29.30
2019-02-21T04:15:16.246Z,29.20
2019-02-21T04:17:47.981Z,29.30
2019-02-21T04:20:19.784Z,29.30
2019-02-21T04:22:51.592Z,29.20
2019-02-21T04:25:23.355Z,29.30
2019-02-21T04:27:55.104Z,29.20
2019-02-21T04:30:27.185Z,29.20
2019-02-21T04:32:59.042Z,29.20
2019-02-21T04:35:30.996Z,29.20
2019-02-21T04:38:02.835Z,29.10
2019-02-21T04:40:34.638Z,29.30
2019-02-21T04:43:06.461Z,29.10
2019-02-21T04:45:38.267Z,28.80
2019-02-21T04:48:10.108Z,28.80
2019-02-21T04:50:41.930Z,28.20
2019-02-21T04:53:13.738Z,28.40
2019-02-21T04:55:45.483Z,28.50
2019-02-21T04:58:17.295Z,28.50
2019-02-21T05:00:49.298Z,28.30
2019-02-21T05:03:21.038Z,28.60
2019-02-21T05:05:52.849Z,28.40
2019-02-21T05:08:25.758Z,28.30
2019-02-21T05:10:57.792Z,28.10
2019-02-21T05:13:29.544Z,28.30
2019-02-21T05:16:01.427Z,28.60
2019-02-21T05:18:33.292Z,28.70
2019-02-21T05:21:05.151Z,28.80
2019-02-21T05:23:36.983Z,28.70
2019-02-21T05:26:10.505Z,28.80
2019-02-21T05:28:42.280Z,28.70
2019-02-21T05:31:39.299Z,28.90
2019-02-21T05:34:28.520Z,29.00
2019-02-21T05:37:24.959Z,28.90
2019-02-21T05:40:21.362Z,28.80
2019-02-21T05:43:03.665Z,28.80
2019-02-21T05:45:57.083Z,28.70
2019-02-21T05:48:34.223Z,28.60
2019-02-21T05:51:15.547Z,28.80
2019-02-21T05:53:58.427Z,29.00
2019-02-21T05:56:56.748Z,29.00
2019-02-21T05:59:50.196Z,28.90
2019-02-21T06:02:33.987Z,29.00
2019-02-21T06:05:20.229Z,29.10
2019-02-21T06:07:58.467Z,29.20
2019-02-21T06:11:01.568Z,29.20
2019-02-21T06:14:04.457Z,29.00
2019-02-21T06:16:42.291Z,28.80
2019-02-21T06:19:35.935Z,28.90
2019-02-21T06:22:38.896Z,29.10
2019-02-21T06:25:29.920Z,29.10
2019-02-21T06:28:08.878Z,29.20
2019-02-21T06:30:44.560Z,29.20
2019-02-21T06:33:16.606Z,29.30
2019-02-21T06:35:48.420Z,28.90
2019-02-21T06:38:20.183Z,28.90
2019-02-21T06:40:52.006Z,28.90
2019-02-21T06:43:23.753Z,29.00
2019-02-21T06:45:57.901Z,28.90
2019-02-21T06:48:29.095Z,28.90
2019-02-21T06:51:01.080Z,29.00
2019-02-21T06:53:32.896Z,28.80
2019-02-21T06:56:04.706Z,28.80
2019-02-21T06:58:36.462Z,28.60
2019-02-21T07:01:08.267Z,28.90
2019-02-21T07:03:40.026Z,28.90
2019-02-21T07:06:12.044Z,29.10
2019-02-21T07:08:43.857Z,29.10
2019-02-21T07:11:15.920Z,28.80
2019-02-21T07:13:47.704Z,29.00
2019-02-21T07:16:19.488Z,29.00
2019-02-21T07:18:51.259Z,29.30
2019-02-21T07:21:23.280Z,29.40
2019-02-21T07:23:55.082Z,29.40
2019-02-21T07:26:26.887Z,29.30
2019-02-21T07:28:58.701Z,29.20
2019-02-21T07:31:32.500Z,29.20
2019-02-21T07:34:04.024Z,28.80
2019-02-21T07:36:35.995Z,28.80
2019-02-21T07:39:16.853Z,28.90
2019-02-21T07:41:41.872Z,28.90
2019-02-21T07:44:13.671Z,29.00
2019-02-21T07:46:46.367Z,29.00
2019-02-21T07:49:18.405Z,28.90
2019-02-21T07:51:50.432Z,28.90
2019-02-21T07:54:22.280Z,29.20
2019-02-21T07:56:54.103Z,29.30
2019-02-21T07:59:25.836Z,28.70
2019-02-21T08:01:57.598Z,28.80
2019-02-21T08:04:29.385Z,28.50
2019-02-21T08:07:01.302Z,28.40
2019-02-21T08:09:33.107Z,28.50
2019-02-21T08:12:05.601Z,28.60
2019-02-21T08:14:37.413Z,28.50
2019-02-21T08:17:09.198Z,28.70
2019-02-21T08:19:40.994Z,28.70
2019-02-21T08:22:12.917Z,28.90
2019-02-21T08:24:44.663Z,28.90
2019-02-21T08:27:16.410Z,29.00
2019-02-21T08:29:48.192Z,29.00
2019-02-21T08:32:23.175Z,28.70
2019-02-21T08:34:55.279Z,29.00
2019-02-21T08:37:27.385Z,28.90
2019-02-21T08:39:59.206Z,29.20
2019-02-21T08:42:30.993Z,29.10
2019-02-21T08:45:02.747Z,29.10
2019-02-21T08:47:34.667Z,29.00
2019-02-21T08:50:06.483Z,29.20
2019-02-21T08:52:38.824Z,29.20
2019-02-21T08:55:10.714Z,29.40
2019-02-21T08:57:42.594Z,29.00
2019-02-21T09:00:14.786Z,29.10
2019-02-21T09:02:47.131Z,29.20
2019-02-21T09:05:19.492Z,29.10
2019-02-21T09:07:51.848Z,29.30
2019-02-21T09:10:23.687Z,29.00
2019-02-21T09:12:55.901Z,28.90
2019-02-21T09:15:27.956Z,28.70
2019-02-21T09:17:59.733Z,28.90
2019-02-21T09:20:33.082Z,29.00
2019-02-21T09:23:05.115Z,29.00
2019-02-21T09:25:36.963Z,28.50
2019-02-21T09:28:08.729Z,28.70
2019-02-21T09:30:40.483Z,28.60
2019-02-21T09:33:17.415Z,28.50
2019-02-21T09:35:45.900Z,28.70
2019-02-21T09:38:18.009Z,28.70
2019-02-21T09:40:49.784Z,28.50
2019-02-21T09:43:21.614Z,28.50
2019-02-21T09:45:53.351Z,28.70
2019-02-21T09:48:25.144Z,28.40
2019-02-21T09:50:56.890Z,28.80
2019-02-21T09:53:29.031Z,28.60
2019-02-21T09:56:00.838Z,28.80
2019-02-21T09:58:32.836Z,28.80
2019-02-21T10:01:04.589Z,28.50
2019-02-21T10:03:36.377Z,28.50
2019-02-21T10:06:08.506Z,28.50
2019-02-21T10:08:40.777Z,28.50
2019-02-21T10:11:12.561Z,28.50
2019-02-21T10:13:44.400Z,28.90
2019-02-21T10:16:16.180Z,29.00
2019-02-21T10:18:47.979Z,28.80
2019-02-21T10:21:19.881Z,29.00
2019-02-21T10:23:51.694Z,28.80
2019-02-21T10:26:23.474Z,28.70
2019-02-21T10:28:55.273Z,28.60
2019-02-21T10:31:27.034Z,28.30
2019-02-21T10:33:58.859Z,28.50
2019-02-21T10:36:30.943Z,28.70
2019-02-21T10:39:03.004Z,29.00
2019-02-21T10:41:36.431Z,29.30
2019-02-21T10:44:08.199Z,29.20
2019-02-21T10:46:39.952Z,28.80
2019-02-21T10:49:11.758Z,28.90
2019-02-21T10:51:43.637Z,28.80
2019-02-21T10:54:15.450Z,29.10
2019-02-21T10:56:47.223Z,29.10
2019-02-21T10:59:18.973Z,29.10
2019-02-21T11:01:50.742Z,29.30
2019-02-21T11:04:25.303Z,29.20
2019-02-21T11:06:57.045Z,29.40
2019-02-21T11:09:29.482Z,29.30
2019-02-21T11:12:01.214Z,29.30
2019-02-21T11:14:33.223Z,29.40
2019-02-21T11:17:04.970Z,28.80
2019-02-21T11:19:36.758Z,28.90
2019-02-21T11:22:08.536Z,28.90
2019-02-21T11:24:40.588Z,29.20
2019-02-21T11:27:12.384Z,29.30
2019-02-21T11:29:44.136Z,29.40
2019-02-21T11:32:18.417Z,29.20
2019-02-21T11:34:50.165Z,29.40
2019-02-21T11:37:21.988Z,29.60
2019-02-21T11:39:54.035Z,29.30
2019-02-21T11:42:25.845Z,29.30
2019-02-21T11:44:57.683Z,29.30
2019-02-21T11:47:30.751Z,29.50
2019-02-21T11:50:02.536Z,29.50
2019-02-21T11:52:34.386Z,29.20
2019-02-21T11:55:07.183Z,28.60
2019-02-21T11:57:38.961Z,28.70
2019-02-21T12:00:15.854Z,28.60
2019-02-21T12:02:47.604Z,28.70
2019-02-21T12:05:30.193Z,28.70
2019-02-21T12:07:52.979Z,28.60
2019-02-21T12:10:26.988Z,28.70
2019-02-21T12:12:58.470Z,28.90
2019-02-21T12:15:30.282Z,28.80
2019-02-21T12:18:02.046Z,28.80
2019-02-21T12:20:33.862Z,28.90
2019-02-21T12:23:05.666Z,28.70
2019-02-21T12:25:39.049Z,28.70
2019-02-21T12:28:10.785Z,28.70
2019-02-21T12:30:42.547Z,28.70
2019-02-21T12:33:14.296Z,28.80
2019-02-21T12:35:46.166Z,29.00
2019-02-21T12:38:18.314Z,29.40
2019-02-21T12:40:50.107Z,28.80
2019-02-21T12:43:21.878Z,28.60
2019-02-21T12:45:59.753Z,28.70
2019-02-21T12:48:32.633Z,28.90
2019-02-21T12:51:05.614Z,28.90
2019-02-21T12:53:41.916Z,29.20
2019-02-21T12:56:13.688Z,29.10
2019-02-21T12:58:45.460Z,29.40
2019-02-21T13:01:17.273Z,29.60
2019-02-21T13:03:49.003Z,29.50
2019-02-21T13:06:20.794Z,29.40
2019-02-21T13:08:52.565Z,29.40
2019-02-21T13:11:26.465Z,29.20
2019-02-21T13:14:01.217Z,29.00
2019-02-21T13:16:33.007Z,28.90
2019-02-21T13:19:04.742Z,28.60
2019-02-21T13:21:36.559Z,28.60
2019-02-21T13:24:09.806Z,28.50
2019-02-21T13:26:41.812Z,28.40
2019-02-21T13:29:13.589Z,28.60
2019-02-21T13:31:45.384Z,28.60
2019-02-21T13:34:17.150Z,28.80
2019-02-21T13:36:48.927Z,28.70
2019-02-21T13:39:25.839Z,28.80
2019-02-21T13:41:57.591Z,28.60
2019-02-21T13:44:29.351Z,28.60
2019-02-21T13:47:01.128Z,28.40
2019-02-21T13:49:34.164Z,28.10
2019-02-21T13:52:05.911Z,27.70
2019-02-21T13:54:37.672Z,27.60
2019-02-21T13:57:09.818Z,27.90
2019-02-21T13:59:41.743Z,28.30
2019-02-21T14:02:15.330Z,28.40
2019-02-21T14:04:47.018Z,28.50
2019-02-21T14:07:19.025Z,28.80
2019-02-21T14:09:50.786Z,28.80
2019-02-21T14:12:22.936Z,28.90
2019-02-21T14:14:54.675Z,28.80
2019-02-21T14:17:26.541Z,28.50
2019-02-21T14:19:58.391Z,28.40
2019-02-21T14:22:30.195Z,28.40
2019-02-21T14:25:01.939Z,28.60
2019-02-21T14:27:34.108Z,28.00
2019-02-21T14:30:06.726Z,27.60
2019-02-21T14:32:38.573Z,27.80
2019-02-21T14:35:12.533Z,28.00
2019-02-21T14:37:44.332Z,28.40
2019-02-21T14:40:17.776Z,28.40
2019-02-21T14:42:49.857Z,28.50
2019-02-21T14:45:21.680Z,28.50
2019-02-21T14:47:53.481Z,28.30
2019-02-21T14:50:26.323Z,28.40
2019-02-21T14:52:58.130Z,28.80
2019-02-21T14:55:30.264Z,28.80
2019-02-21T14:58:02.591Z,28.20
2019-02-21T15:00:34.466Z,28.70
2019-02-21T15:03:06.378Z,28.90
2019-02-21T15:05:38.258Z,29.00
2019-02-21T15:08:10.119Z,29.10
2019-02-21T15:10:41.981Z,28.80
2019-02-21T15:13:15.425Z,28.40
2019-02-21T15:15:47.242Z,28.00
2019-02-21T15:18:21.472Z,28.00
2019-02-21T15:20:53.346Z,28.20
2019-02-21T15:23:25.140Z,28.30
2019-02-21T15:25:56.944Z,28.50
2019-02-21T15:28:29.002Z,28.70
2019-02-21T15:31:00.774Z,28.60
2019-02-21T15:33:32.605Z,28.80
2019-02-21T15:36:04.427Z,28.60
2019-02-21T15:38:36.412Z,28.70
2019-02-21T15:41:08.347Z,28.90
2019-02-21T15:43:40.120Z,29.20
2019-02-21T15:46:11.975Z,29.30
2019-02-21T15:48:46.472Z,29.20
2019-02-21T15:51:18.554Z,29.40
2019-02-21T15:53:50.320Z,29.30
2019-02-21T15:56:22.070Z,29.40
2019-02-21T15:58:53.887Z,29.50
2019-02-21T16:01:26.842Z,29.60
2019-02-21T16:03:58.842Z,29.20
2019-02-21T16:06:30.626Z,29.20
2019-02-21T16:09:02.909Z,29.20
2019-02-21T16:11:36.356Z,29.00
2019-02-21T16:14:08.118Z,29.10
2019-02-21T16:16:40.035Z,28.70
2019-02-21T16:19:12.074Z,29.10
2019-02-21T16:21:43.849Z,28.90
2019-02-21T16:24:15.646Z,29.20
2019-02-21T16:26:47.428Z,29.30
2019-02-21T16:29:19.297Z,29.40
2019-02-21T16:31:51.082Z,29.40
2019-02-21T16:34:22.866Z,29.40
2019-02-21T16:37:02.089Z,29.40
2019-02-21T16:39:28.159Z,29.60
2019-02-21T16:42:00.277Z,29.60
2019-02-21T16:44:32.389Z,29.50
2019-02-21T16:47:05.712Z,29.60
2019-02-21T16:49:38.882Z,29.50
2019-02-21T16:52:10.690Z,29.60
2019-02-21T16:54:42.503Z,29.50
2019-02-21T16:57:15.394Z,29.40
2019-02-21T16:59:47.380Z,29.60
2019-02-21T17:02:19.131Z,29.70
2019-02-21T17:04:50.857Z,29.70
2019-02-21T17:07:22.653Z,29.80
2019-02-21T17:09:54.436Z,29.80
2019-02-21T17:12:26.243Z,29.90
2019-02-21T17:14:58.315Z,30.00
2019-02-21T17:17:30.404Z,30.00
2019-02-21T17:20:02.323Z,30.10
2019-02-21T17:22:34.461Z,30.20
2019-02-21T17:25:06.788Z,30.20
2019-02-21T17:27:38.694Z,30.30
2019-02-21T17:30:14.486Z,30.30
2019-02-21T17:32:46.929Z,30.20
2019-02-21T17:35:18.997Z,30.30
2019-02-21T17:37:50.772Z,30.30
2019-02-21T17:40:23.021Z,30.30
2019-02-21T17:42:55.150Z,30.40
2019-02-21T17:45:27.177Z,30.40
2019-02-21T17:47:59.276Z,30.50
2019-02-21T17:50:31.296Z,30.50
2019-02-21T17:53:03.174Z,30.50
2019-02-21T17:55:35.035Z,30.30
2019-02-21T17:58:06.889Z,30.40
2019-02-21T18:00:39.503Z,30.50
2019-02-21T18:03:14.031Z,30.50
2019-02-21T18:05:45.812Z,30.50
2019-02-21T18:08:17.671Z,30.50
2019-02-21T18:10:49.583Z,30.50
2019-02-21T18:13:21.432Z,30.10
2019-02-21T18:15:53.483Z,30.10
2019-02-21T18:18:25.295Z,30.10
2019-02-21T18:20:57.133Z,30.30
2019-02-21T18:23:29.012Z,30.30
2019-02-21T18:26:07.908Z,30.40
2019-02-21T18:28:39.732Z,30.30
2019-02-21T18:31:25.721Z,30.50
2019-02-21T18:33:57.510Z,30.50
2019-02-21T18:36:32.071Z,30.50
2019-02-21T18:39:05.136Z,30.30
2019-02-21T18:41:38.573Z,30.30
2019-02-21T18:44:12.115Z,30.10
2019-02-21T18:46:44.291Z,30.30
2019-02-21T18:49:16.197Z,30.30
2019-02-21T18:51:48.290Z,29.90
2019-02-21T18:54:20.945Z,30.20
2019-02-21T18:56:53.307Z,30.30
2019-02-21T18:59:31.699Z,30.20
2019-02-21T19:01:59.837Z,30.30
2019-02-21T19:04:33.501Z,29.90
2019-02-21T19:07:07.951Z,30.10
2019-02-21T19:09:40.527Z,30.20
2019-02-21T19:12:12.726Z,30.10
2019-02-21T19:14:45.635Z,30.00
2019-02-21T19:17:20.957Z,30.10
2019-02-21T19:19:53.514Z,29.90
2019-02-21T19:22:26.736Z,29.90
2019-02-21T19:25:00.336Z,29.70
2019-02-21T19:27:37.194Z,30.00
2019-02-21T19:30:25.609Z,30.00
2019-02-21T19:32:57.191Z,29.90
2019-02-21T19:35:29.592Z,29.80
2019-02-21T19:38:10.361Z,29.70
2019-02-21T19:40:37.786Z,30.00
2019-02-21T19:43:13.972Z,30.00
2019-02-21T19:45:48.793Z,30.00
2019-02-21T19:48:22.817Z,30.00
2019-02-21T19:50:56.195Z,30.00
2019-02-21T19:53:29.785Z,29.90
2019-02-21T19:56:02.970Z,30.00
2019-02-21T19:58:36.282Z,30.10
2019-02-21T20:01:12.901Z,29.90
2019-02-21T20:03:47.112Z,30.10
2019-02-21T20:06:21.874Z,30.20
2019-02-21T20:08:55.326Z,29.90
2019-02-21T20:11:28.841Z,29.60
2019-02-21T20:14:02.293Z,29.70
2019-02-21T20:16:35.704Z,29.60
2019-02-21T20:19:09.683Z,29.70
2019-02-21T20:21:43.175Z,29.40
2019-02-21T20:24:17.727Z,29.50
2019-02-21T20:26:51.531Z,29.50
2019-02-21T20:29:25.594Z,29.60
2019-02-21T20:31:59.034Z,29.70
2019-02-21T20:34:33.160Z,29.70
2019-02-21T20:37:06.712Z,29.80
2019-02-21T20:39:40.357Z,29.90
2019-02-21T20:42:13.746Z,30.00
2019-02-21T20:44:47.241Z,30.00
2019-02-21T20:47:21.197Z,30.10
2019-02-21T20:49:55.628Z,30.30
2019-02-21T20:52:28.941Z,30.40
2019-02-21T20:55:02.354Z,30.50
2019-02-21T20:57:38.687Z,30.50
2019-02-21T21:00:13.986Z,30.40
2019-02-21T21:02:49.784Z,30.30
2019-02-21T21:05:23.258Z,30.10
2019-02-21T21:07:56.632Z,29.90
2019-02-21T21:10:29.940Z,29.60
2019-02-21T21:13:02.962Z,29.60
2019-02-21T21:15:36.000Z,29.40
2019-02-21T21:18:09.118Z,29.40
2019-02-21T21:20:43.530Z,29.50
2019-02-21T21:23:16.335Z,29.50
2019-02-21T21:25:49.702Z,29.50
2019-02-21T21:28:22.246Z,29.30
2019-02-21T21:30:55.096Z,29.30
2019-02-21T21:33:28.119Z,29.30
2019-02-21T21:36:00.661Z,29.30
2019-02-21T21:38:33.137Z,29.30
2019-02-21T21:41:05.537Z,29.20
2019-02-21T21:43:38.133Z,28.90
2019-02-21T21:46:10.852Z,28.60
2019-02-21T21:48:43.235Z,28.60
2019-02-21T21:51:15.150Z,28.50
2019-02-21T21:53:46.965Z,28.30
2019-02-21T21:56:18.743Z,27.90
2019-02-21T21:58:50.541Z,27.90
2019-02-21T22:01:22.435Z,27.60
2019-02-21T22:03:54.306Z,26.20
2019-02-21T22:06:26.321Z,26.40
2019-02-21T22:09:04.822Z,26.30
2019-02-21T22:11:33.801Z,25.00
2019-02-21T22:14:06.006Z,24.30
2019-02-21T22:16:38.125Z,24.90
2019-02-21T22:19:10.296Z,24.90
2019-02-21T22:21:42.671Z,25.00
2019-02-21T22:24:14.741Z,25.50
2019-02-21T22:26:47.196Z,25.50
2019-02-21T22:29:19.361Z,24.30
2019-02-21T22:31:51.502Z,23.00
2019-02-21T22:34:23.633Z,23.00
2019-02-21T22:36:55.777Z,24.00
2019-02-21T22:39:27.919Z,24.60
2019-02-21T22:41:59.992Z,24.60
2019-02-21T22:44:32.415Z,24.80
2019-02-21T22:47:05.003Z,24.90
2019-02-21T22:49:37.405Z,24.90
2019-02-21T22:52:09.822Z,25.00
2019-02-21T22:54:41.927Z,25.00
2019-02-21T22:57:14.002Z,24.20
2019-02-21T22:59:46.183Z,24.20
2019-02-21T23:02:21.632Z,24.00
2019-02-21T23:05:38.385Z,23.70
2019-02-21T23:08:53.399Z,24.40
2019-02-21T23:11:26.212Z,24.50
2019-02-21T23:13:58.315Z,24.90
2019-02-21T23:16:30.571Z,25.20
2019-02-21T23:19:02.703Z,25.30
2019-02-21T23:21:37.578Z,25.30
2019-02-21T23:24:10.009Z,25.50
2019-02-21T23:26:44.466Z,25.50
2019-02-21T23:29:18.049Z,25.50
2019-02-21T23:31:50.267Z,24.90
2019-02-21T23:34:39.247Z,24.80
2019-02-21T23:37:11.372Z,24.80
2019-02-21T23:39:43.853Z,23.90
2019-02-21T23:42:15.942Z,23.50
2019-02-21T23:44:48.118Z,23.90
2019-02-21T23:47:20.167Z,23.80
2019-02-21T23:49:52.535Z,23.40
2019-02-21T23:52:24.680Z,23.50
2019-02-21T23:54:57.937Z,22.10
2019-02-21T23:57:30.450Z,22.50
